sensor_id;sensor_type;location;lat;lon;timestamp;temperature;humidity
76785;SHT30;66893;44.316;0.092;2023-12-20T00:01:39;14.09;60.46
76785;SHT30;66893;44.316;0.092;2023-12-20T00:04:04;14.09;60.50
76785;SHT30;66893;44.316;0.092;2023-12-20T00:06:30;14.09;60.54
76785;SHT30;66893;44.316;0.092;2023-12-20T00:08:56;14.10;60.52
76785;SHT30;66893;44.316;0.092;2023-12-20T00:11:23;14.10;60.54
76785;SHT30;66893;44.316;0.092;2023-12-20T00:13:48;14.13;60.53
76785;SHT30;66893;44.316;0.092;2023-12-20T00:16:14;14.10;60.56
76785;SHT30;66893;44.316;0.092;2023-12-20T00:18:39;14.11;60.58
76785;SHT30;66893;44.316;0.092;2023-12-20T00:21:04;14.11;60.62
76785;SHT30;66893;44.316;0.092;2023-12-20T00:23:30;14.10;60.64
76785;SHT30;66893;44.316;0.092;2023-12-20T00:25:55;14.13;60.70
76785;SHT30;66893;44.316;0.092;2023-12-20T00:28:21;14.14;60.68
76785;SHT30;66893;44.316;0.092;2023-12-20T00:30:47;14.11;60.73
76785;SHT30;66893;44.316;0.092;2023-12-20T00:33:12;14.11;60.71
76785;SHT30;66893;44.316;0.092;2023-12-20T00:35:37;14.13;60.77
76785;SHT30;66893;44.316;0.092;2023-12-20T00:38:03;14.11;60.78
76785;SHT30;66893;44.316;0.092;2023-12-20T00:40:30;14.13;60.86
76785;SHT30;66893;44.316;0.092;2023-12-20T00:42:55;14.14;60.82
76785;SHT30;66893;44.316;0.092;2023-12-20T00:45:21;14.14;60.90
76785;SHT30;66893;44.316;0.092;2023-12-20T00:47:46;14.13;60.89
76785;SHT30;66893;44.316;0.092;2023-12-20T00:50:12;14.11;60.86
76785;SHT30;66893;44.316;0.092;2023-12-20T00:52:37;14.13;60.95
76785;SHT30;66893;44.316;0.092;2023-12-20T00:55:03;14.11;60.95
76785;SHT30;66893;44.316;0.092;2023-12-20T00:57:29;14.11;61.03
76785;SHT30;66893;44.316;0.092;2023-12-20T00:59:54;14.11;61.04
76785;SHT30;66893;44.316;0.092;2023-12-20T01:02:20;14.11;61.02
76785;SHT30;66893;44.316;0.092;2023-12-20T01:04:45;14.13;61.09
76785;SHT30;66893;44.316;0.092;2023-12-20T01:07:11;14.16;61.08
76785;SHT30;66893;44.316;0.092;2023-12-20T01:09:36;14.11;61.16
76785;SHT30;66893;44.316;0.092;2023-12-20T01:12:02;14.16;61.16
76785;SHT30;66893;44.316;0.092;2023-12-20T01:14:27;14.13;61.15
76785;SHT30;66893;44.316;0.092;2023-12-20T01:16:52;14.14;61.19
76785;SHT30;66893;44.316;0.092;2023-12-20T01:19:18;14.13;61.16
76785;SHT30;66893;44.316;0.092;2023-12-20T01:21:43;14.14;61.19
76785;SHT30;66893;44.316;0.092;2023-12-20T01:24:09;14.14;61.26
76785;SHT30;66893;44.316;0.092;2023-12-20T01:26:35;14.14;61.27
76785;SHT30;66893;44.316;0.092;2023-12-20T01:29:00;14.16;61.27
76785;SHT30;66893;44.316;0.092;2023-12-20T01:31:26;14.14;61.35
76785;SHT30;66893;44.316;0.092;2023-12-20T01:33:52;14.13;61.34
76785;SHT30;66893;44.316;0.092;2023-12-20T01:36:18;14.16;61.36
76785;SHT30;66893;44.316;0.092;2023-12-20T01:38:43;14.16;61.40
76785;SHT30;66893;44.316;0.092;2023-12-20T01:41:09;14.13;61.39
76785;SHT30;66893;44.316;0.092;2023-12-20T01:43:34;14.14;61.42
76785;SHT30;66893;44.316;0.092;2023-12-20T01:46:00;14.13;61.42
76785;SHT30;66893;44.316;0.092;2023-12-20T01:48:27;14.14;61.43
76785;SHT30;66893;44.316;0.092;2023-12-20T01:50:53;14.17;61.46
76785;SHT30;66893;44.316;0.092;2023-12-20T01:53:22;14.16;61.47
76785;SHT30;66893;44.316;0.092;2023-12-20T01:55:50;14.14;61.52
76785;SHT30;66893;44.316;0.092;2023-12-20T01:58:17;14.16;61.56
76785;SHT30;66893;44.316;0.092;2023-12-20T02:00:44;14.17;61.54
76785;SHT30;66893;44.316;0.092;2023-12-20T02:03:09;14.18;61.57
76785;SHT30;66893;44.316;0.092;2023-12-20T02:05:35;14.16;61.58
76785;SHT30;66893;44.316;0.092;2023-12-20T02:08:02;14.17;61.63
76785;SHT30;66893;44.316;0.092;2023-12-20T02:10:27;14.16;61.65
76785;SHT30;66893;44.316;0.092;2023-12-20T02:12:54;14.17;61.69
76785;SHT30;66893;44.316;0.092;2023-12-20T02:15:19;14.17;61.67
76785;SHT30;66893;44.316;0.092;2023-12-20T02:17:46;14.17;61.73
76785;SHT30;66893;44.316;0.092;2023-12-20T02:20:12;14.17;61.73
76785;SHT30;66893;44.316;0.092;2023-12-20T02:22:38;14.18;61.79
76785;SHT30;66893;44.316;0.092;2023-12-20T02:25:03;14.16;61.79
76785;SHT30;66893;44.316;0.092;2023-12-20T02:27:29;14.17;61.76
76785;SHT30;66893;44.316;0.092;2023-12-20T02:29:55;14.16;61.81
76785;SHT30;66893;44.316;0.092;2023-12-20T02:32:21;14.17;61.83
76785;SHT30;66893;44.316;0.092;2023-12-20T02:34:48;14.17;61.87
76785;SHT30;66893;44.316;0.092;2023-12-20T02:37:13;14.17;61.90
76785;SHT30;66893;44.316;0.092;2023-12-20T02:39:39;14.17;61.93
76785;SHT30;66893;44.316;0.092;2023-12-20T02:42:04;14.14;61.97
76785;SHT30;66893;44.316;0.092;2023-12-20T02:44:30;14.17;61.97
76785;SHT30;66893;44.316;0.092;2023-12-20T02:46:55;14.17;61.97
76785;SHT30;66893;44.316;0.092;2023-12-20T02:49:20;14.20;61.95
76785;SHT30;66893;44.316;0.092;2023-12-20T02:51:46;14.18;61.95
76785;SHT30;66893;44.316;0.092;2023-12-20T02:54:12;14.18;61.98
76785;SHT30;66893;44.316;0.092;2023-12-20T02:56:37;14.18;62.05
76785;SHT30;66893;44.316;0.092;2023-12-20T02:59:03;14.17;62.06
76785;SHT30;66893;44.316;0.092;2023-12-20T03:01:31;14.20;62.02
76785;SHT30;66893;44.316;0.092;2023-12-20T03:03:56;14.18;62.06
76785;SHT30;66893;44.316;0.092;2023-12-20T03:06:22;14.21;62.04
76785;SHT30;66893;44.316;0.092;2023-12-20T03:08:47;14.24;62.08
76785;SHT30;66893;44.316;0.092;2023-12-20T03:11:13;14.20;62.08
76785;SHT30;66893;44.316;0.092;2023-12-20T03:13:38;14.24;62.11
76785;SHT30;66893;44.316;0.092;2023-12-20T03:16:13;14.24;62.11
76785;SHT30;66893;44.316;0.092;2023-12-20T03:18:39;14.24;62.13
76785;SHT30;66893;44.316;0.092;2023-12-20T03:21:05;14.24;62.13
76785;SHT30;66893;44.316;0.092;2023-12-20T03:23:31;14.24;62.16
76785;SHT30;66893;44.316;0.092;2023-12-20T03:25:59;14.24;62.20
76785;SHT30;66893;44.316;0.092;2023-12-20T03:28:25;14.24;62.22
76785;SHT30;66893;44.316;0.092;2023-12-20T03:30:51;14.21;62.20
76785;SHT30;66893;44.316;0.092;2023-12-20T03:33:17;14.21;62.26
76785;SHT30;66893;44.316;0.092;2023-12-20T03:35:42;14.25;62.28
76785;SHT30;66893;44.316;0.092;2023-12-20T03:38:07;14.24;62.23
76785;SHT30;66893;44.316;0.092;2023-12-20T03:40:33;14.25;62.30
76785;SHT30;66893;44.316;0.092;2023-12-20T03:42:58;14.24;62.39
76785;SHT30;66893;44.316;0.092;2023-12-20T03:45:24;14.25;62.36
76785;SHT30;66893;44.316;0.092;2023-12-20T03:47:49;14.27;62.33
76785;SHT30;66893;44.316;0.092;2023-12-20T03:50:15;14.25;62.38
76785;SHT30;66893;44.316;0.092;2023-12-20T03:52:40;14.28;62.36
76785;SHT30;66893;44.316;0.092;2023-12-20T03:55:06;14.28;62.39
76785;SHT30;66893;44.316;0.092;2023-12-20T03:57:31;14.28;62.42
76785;SHT30;66893;44.316;0.092;2023-12-20T03:59:57;14.29;62.54
76785;SHT30;66893;44.316;0.092;2023-12-20T04:02:22;14.27;62.52
76785;SHT30;66893;44.316;0.092;2023-12-20T04:04:47;14.27;62.56
76785;SHT30;66893;44.316;0.092;2023-12-20T04:07:13;14.28;62.58
76785;SHT30;66893;44.316;0.092;2023-12-20T04:09:38;14.31;62.64
76785;SHT30;66893;44.316;0.092;2023-12-20T04:12:05;14.28;62.62
76785;SHT30;66893;44.316;0.092;2023-12-20T04:14:31;14.27;62.70
76785;SHT30;66893;44.316;0.092;2023-12-20T04:16:56;14.27;62.69
76785;SHT30;66893;44.316;0.092;2023-12-20T04:19:22;14.29;62.76
76785;SHT30;66893;44.316;0.092;2023-12-20T04:21:47;14.27;62.81
76785;SHT30;66893;44.316;0.092;2023-12-20T04:24:13;14.28;62.81
76785;SHT30;66893;44.316;0.092;2023-12-20T04:26:38;14.31;62.82
76785;SHT30;66893;44.316;0.092;2023-12-20T04:29:03;14.29;62.89
76785;SHT30;66893;44.316;0.092;2023-12-20T04:31:29;14.29;63.01
76785;SHT30;66893;44.316;0.092;2023-12-20T04:33:54;14.31;63.05
76785;SHT30;66893;44.316;0.092;2023-12-20T04:36:19;14.29;63.00
76785;SHT30;66893;44.316;0.092;2023-12-20T04:38:45;14.32;63.10
76785;SHT30;66893;44.316;0.092;2023-12-20T04:41:10;14.32;63.09
76785;SHT30;66893;44.316;0.092;2023-12-20T04:43:35;14.34;63.11
76785;SHT30;66893;44.316;0.092;2023-12-20T04:46:01;14.34;63.21
76785;SHT30;66893;44.316;0.092;2023-12-20T04:48:26;14.35;63.25
76785;SHT30;66893;44.316;0.092;2023-12-20T04:50:52;14.34;63.33
76785;SHT30;66893;44.316;0.092;2023-12-20T04:53:17;14.35;63.39
76785;SHT30;66893;44.316;0.092;2023-12-20T04:55:43;14.34;63.43
76785;SHT30;66893;44.316;0.092;2023-12-20T04:58:09;14.37;63.46
76785;SHT30;66893;44.316;0.092;2023-12-20T05:00:34;14.38;63.44
76785;SHT30;66893;44.316;0.092;2023-12-20T05:02:59;14.37;63.48
76785;SHT30;66893;44.316;0.092;2023-12-20T05:05:25;14.38;63.41
76785;SHT30;66893;44.316;0.092;2023-12-20T05:07:50;14.37;63.48
76785;SHT30;66893;44.316;0.092;2023-12-20T05:10:16;14.39;63.49
76785;SHT30;66893;44.316;0.092;2023-12-20T05:12:41;14.39;63.51
76785;SHT30;66893;44.316;0.092;2023-12-20T05:15:07;14.41;63.56
76785;SHT30;66893;44.316;0.092;2023-12-20T05:17:32;14.42;63.58
76785;SHT30;66893;44.316;0.092;2023-12-20T05:19:58;14.39;63.56
76785;SHT30;66893;44.316;0.092;2023-12-20T05:22:23;14.42;63.60
76785;SHT30;66893;44.316;0.092;2023-12-20T05:24:49;14.41;63.53
76785;SHT30;66893;44.316;0.092;2023-12-20T05:27:14;14.42;63.61
76785;SHT30;66893;44.316;0.092;2023-12-20T05:29:39;14.42;63.58
76785;SHT30;66893;44.316;0.092;2023-12-20T05:32:05;14.44;63.55
76785;SHT30;66893;44.316;0.092;2023-12-20T05:34:31;14.44;63.57
76785;SHT30;66893;44.316;0.092;2023-12-20T05:36:57;14.48;63.59
76785;SHT30;66893;44.316;0.092;2023-12-20T05:39:23;14.46;63.54
76785;SHT30;66893;44.316;0.092;2023-12-20T05:41:48;14.46;63.60
76785;SHT30;66893;44.316;0.092;2023-12-20T05:44:13;14.49;63.66
76785;SHT30;66893;44.316;0.092;2023-12-20T05:46:39;14.46;63.69
76785;SHT30;66893;44.316;0.092;2023-12-20T05:49:05;14.46;63.66
76785;SHT30;66893;44.316;0.092;2023-12-20T05:51:31;14.46;63.73
76785;SHT30;66893;44.316;0.092;2023-12-20T05:53:56;14.45;63.70
76785;SHT30;66893;44.316;0.092;2023-12-20T05:56:21;14.46;63.71
76785;SHT30;66893;44.316;0.092;2023-12-20T05:58:47;14.46;63.73
76785;SHT30;66893;44.316;0.092;2023-12-20T06:01:14;14.46;63.71
76785;SHT30;66893;44.316;0.092;2023-12-20T06:03:42;14.48;63.76
76785;SHT30;66893;44.316;0.092;2023-12-20T06:06:08;14.51;63.70
76785;SHT30;66893;44.316;0.092;2023-12-20T06:08:33;14.51;63.73
76785;SHT30;66893;44.316;0.092;2023-12-20T06:10:59;14.48;63.72
76785;SHT30;66893;44.316;0.092;2023-12-20T06:13:24;14.48;63.73
76785;SHT30;66893;44.316;0.092;2023-12-20T06:15:50;14.49;63.70
76785;SHT30;66893;44.316;0.092;2023-12-20T06:18:16;14.49;63.76
76785;SHT30;66893;44.316;0.092;2023-12-20T06:20:41;14.51;63.77
76785;SHT30;66893;44.316;0.092;2023-12-20T06:23:07;14.49;63.74
76785;SHT30;66893;44.316;0.092;2023-12-20T06:25:34;14.51;63.75
76785;SHT30;66893;44.316;0.092;2023-12-20T06:27:59;14.51;63.70
76785;SHT30;66893;44.316;0.092;2023-12-20T06:30:25;14.51;63.72
76785;SHT30;66893;44.316;0.092;2023-12-20T06:32:53;14.51;63.73
76785;SHT30;66893;44.316;0.092;2023-12-20T06:35:18;14.52;63.75
76785;SHT30;66893;44.316;0.092;2023-12-20T06:37:44;14.49;63.72
76785;SHT30;66893;44.316;0.092;2023-12-20T06:40:10;14.52;63.79
76785;SHT30;66893;44.316;0.092;2023-12-20T06:42:36;14.51;63.72
76785;SHT30;66893;44.316;0.092;2023-12-20T06:45:02;14.52;63.78
76785;SHT30;66893;44.316;0.092;2023-12-20T06:47:28;14.51;63.77
76785;SHT30;66893;44.316;0.092;2023-12-20T06:49:53;14.52;63.80
76785;SHT30;66893;44.316;0.092;2023-12-20T06:52:19;14.52;63.75
76785;SHT30;66893;44.316;0.092;2023-12-20T06:54:44;14.54;63.74
76785;SHT30;66893;44.316;0.092;2023-12-20T06:57:10;14.52;63.77
76785;SHT30;66893;44.316;0.092;2023-12-20T06:59:41;14.51;63.76
76785;SHT30;66893;44.316;0.092;2023-12-20T07:02:08;14.51;63.76
76785;SHT30;66893;44.316;0.092;2023-12-20T07:04:34;14.54;63.79
76785;SHT30;66893;44.316;0.092;2023-12-20T07:06:59;14.55;63.80
76785;SHT30;66893;44.316;0.092;2023-12-20T07:09:28;14.56;63.75
76785;SHT30;66893;44.316;0.092;2023-12-20T07:11:53;14.55;63.76
76785;SHT30;66893;44.316;0.092;2023-12-20T07:14:19;14.54;63.74
76785;SHT30;66893;44.316;0.092;2023-12-20T07:16:44;14.58;63.75
76785;SHT30;66893;44.316;0.092;2023-12-20T07:19:10;14.55;63.71
76785;SHT30;66893;44.316;0.092;2023-12-20T07:21:35;14.56;63.75
76785;SHT30;66893;44.316;0.092;2023-12-20T07:24:01;14.56;63.71
76785;SHT30;66893;44.316;0.092;2023-12-20T07:26:26;14.55;63.70
76785;SHT30;66893;44.316;0.092;2023-12-20T07:28:52;14.56;63.68
76785;SHT30;66893;44.316;0.092;2023-12-20T07:31:17;14.56;63.67
76785;SHT30;66893;44.316;0.092;2023-12-20T07:33:43;14.54;63.65
76785;SHT30;66893;44.316;0.092;2023-12-20T07:36:08;14.56;63.68
76785;SHT30;66893;44.316;0.092;2023-12-20T07:38:34;14.55;63.70
76785;SHT30;66893;44.316;0.092;2023-12-20T07:40:59;14.55;63.65
76785;SHT30;66893;44.316;0.092;2023-12-20T07:43:25;14.56;63.64
76785;SHT30;66893;44.316;0.092;2023-12-20T07:45:50;14.55;63.59
76785;SHT30;66893;44.316;0.092;2023-12-20T07:48:15;14.56;63.60
76785;SHT30;66893;44.316;0.092;2023-12-20T07:50:41;14.54;63.59
76785;SHT30;66893;44.316;0.092;2023-12-20T07:53:07;14.52;63.56
76785;SHT30;66893;44.316;0.092;2023-12-20T07:55:33;14.55;63.51
76785;SHT30;66893;44.316;0.092;2023-12-20T07:57:59;14.52;63.55
76785;SHT30;66893;44.316;0.092;2023-12-20T08:00:25;14.54;63.49
76785;SHT30;66893;44.316;0.092;2023-12-20T08:02:50;14.56;63.48
76785;SHT30;66893;44.316;0.092;2023-12-20T08:05:15;14.61;63.44
76785;SHT30;66893;44.316;0.092;2023-12-20T08:07:41;14.59;63.39
76785;SHT30;66893;44.316;0.092;2023-12-20T08:10:07;14.59;63.33
76785;SHT30;66893;44.316;0.092;2023-12-20T08:12:32;14.61;63.33
76785;SHT30;66893;44.316;0.092;2023-12-20T08:14:58;14.61;63.29
76785;SHT30;66893;44.316;0.092;2023-12-20T08:17:24;14.62;63.26
76785;SHT30;66893;44.316;0.092;2023-12-20T08:19:49;14.62;63.12
76785;SHT30;66893;44.316;0.092;2023-12-20T08:22:15;14.62;63.07
76785;SHT30;66893;44.316;0.092;2023-12-20T08:24:40;14.61;63.00
76785;SHT30;66893;44.316;0.092;2023-12-20T08:27:05;14.64;62.99
76785;SHT30;66893;44.316;0.092;2023-12-20T08:29:31;14.64;62.95
76785;SHT30;66893;44.316;0.092;2023-12-20T08:31:56;14.66;62.91
76785;SHT30;66893;44.316;0.092;2023-12-20T08:34:22;14.65;62.87
76785;SHT30;66893;44.316;0.092;2023-12-20T08:36:50;14.64;62.85
76785;SHT30;66893;44.316;0.092;2023-12-20T08:39:15;14.66;62.82
76785;SHT30;66893;44.316;0.092;2023-12-20T08:41:40;14.68;62.75
76785;SHT30;66893;44.316;0.092;2023-12-20T08:44:06;14.66;62.65
76785;SHT30;66893;44.316;0.092;2023-12-20T08:46:31;14.65;62.63
76785;SHT30;66893;44.316;0.092;2023-12-20T08:48:57;14.66;62.55
76785;SHT30;66893;44.316;0.092;2023-12-20T08:51:22;14.65;62.52
76785;SHT30;66893;44.316;0.092;2023-12-20T08:53:50;14.65;62.47
76785;SHT30;66893;44.316;0.092;2023-12-20T08:56:16;14.64;62.48
76785;SHT30;66893;44.316;0.092;2023-12-20T08:58:43;14.59;62.41
76785;SHT30;66893;44.316;0.092;2023-12-20T09:01:09;14.61;62.35
76785;SHT30;66893;44.316;0.092;2023-12-20T09:03:34;14.62;62.30
76785;SHT30;66893;44.316;0.092;2023-12-20T09:06:00;14.59;62.27
76785;SHT30;66893;44.316;0.092;2023-12-20T09:08:25;14.62;62.22
76785;SHT30;66893;44.316;0.092;2023-12-20T09:10:51;14.65;62.17
76785;SHT30;66893;44.316;0.092;2023-12-20T09:13:16;14.65;62.11
76785;SHT30;66893;44.316;0.092;2023-12-20T09:15:41;14.64;62.07
76785;SHT30;66893;44.316;0.092;2023-12-20T09:18:07;14.61;62.03
76785;SHT30;66893;44.316;0.092;2023-12-20T09:20:33;14.62;61.96
76785;SHT30;66893;44.316;0.092;2023-12-20T09:22:59;14.66;61.97
76785;SHT30;66893;44.316;0.092;2023-12-20T09:25:24;14.65;61.89
76785;SHT30;66893;44.316;0.092;2023-12-20T09:27:51;14.66;61.87
76785;SHT30;66893;44.316;0.092;2023-12-20T09:30:17;14.66;61.81
76785;SHT30;66893;44.316;0.092;2023-12-20T09:32:43;14.66;61.76
76785;SHT30;66893;44.316;0.092;2023-12-20T09:35:08;14.68;61.69
76785;SHT30;66893;44.316;0.092;2023-12-20T09:37:34;14.68;61.66
76785;SHT30;66893;44.316;0.092;2023-12-20T09:39:59;14.71;61.58
76785;SHT30;66893;44.316;0.092;2023-12-20T09:42:33;14.71;61.58
76785;SHT30;66893;44.316;0.092;2023-12-20T09:45:03;14.71;61.50
76785;SHT30;66893;44.316;0.092;2023-12-20T09:47:30;14.71;61.41
76785;SHT30;66893;44.316;0.092;2023-12-20T09:49:56;14.72;61.40
76785;SHT30;66893;44.316;0.092;2023-12-20T09:52:24;14.72;61.37
76785;SHT30;66893;44.316;0.092;2023-12-20T09:54:50;14.72;61.36
76785;SHT30;66893;44.316;0.092;2023-12-20T09:57:17;14.72;61.25
76785;SHT30;66893;44.316;0.092;2023-12-20T09:59:43;14.69;61.14
76785;SHT30;66893;44.316;0.092;2023-12-20T10:02:13;14.69;61.16
76785;SHT30;66893;44.316;0.092;2023-12-20T10:04:46;14.71;61.11
76785;SHT30;66893;44.316;0.092;2023-12-20T10:07:12;14.72;61.07
76785;SHT30;66893;44.316;0.092;2023-12-20T10:09:38;14.73;61.03
76785;SHT30;66893;44.316;0.092;2023-12-20T10:12:04;14.73;61.01
76785;SHT30;66893;44.316;0.092;2023-12-20T10:14:32;14.76;60.93
76785;SHT30;66893;44.316;0.092;2023-12-20T10:17:04;14.76;60.86
76785;SHT30;66893;44.316;0.092;2023-12-20T10:19:33;14.79;60.76
76785;SHT30;66893;44.316;0.092;2023-12-20T10:22:04;14.76;60.60
76785;SHT30;66893;44.316;0.092;2023-12-20T10:24:30;14.77;60.52
76785;SHT30;66893;44.316;0.092;2023-12-20T10:27:07;14.75;60.43
76785;SHT30;66893;44.316;0.092;2023-12-20T10:29:36;14.75;60.26
76785;SHT30;66893;44.316;0.092;2023-12-20T10:32:24;14.73;60.25
76785;SHT30;66893;44.316;0.092;2023-12-20T10:34:50;14.72;60.02
76785;SHT30;66893;44.316;0.092;2023-12-20T10:37:16;14.71;60.05
76785;SHT30;66893;44.316;0.092;2023-12-20T10:39:42;14.69;60.04
76785;SHT30;66893;44.316;0.092;2023-12-20T10:42:11;14.73;60.07
76785;SHT30;66893;44.316;0.092;2023-12-20T10:44:37;14.75;60.07
76785;SHT30;66893;44.316;0.092;2023-12-20T10:47:03;14.76;60.02
76785;SHT30;66893;44.316;0.092;2023-12-20T10:49:30;14.76;60.04
76785;SHT30;66893;44.316;0.092;2023-12-20T10:51:57;14.82;60.07
76785;SHT30;66893;44.316;0.092;2023-12-20T10:54:25;14.86;59.99
76785;SHT30;66893;44.316;0.092;2023-12-20T10:56:51;14.89;59.98
76785;SHT30;66893;44.316;0.092;2023-12-20T10:59:19;14.90;59.93
76785;SHT30;66893;44.316;0.092;2023-12-20T11:01:47;14.97;59.94
76785;SHT30;66893;44.316;0.092;2023-12-20T11:04:18;14.99;59.90
76785;SHT30;66893;44.316;0.092;2023-12-20T11:06:52;15.04;59.83
76785;SHT30;66893;44.316;0.092;2023-12-20T11:09:26;15.08;59.84
76785;SHT30;66893;44.316;0.092;2023-12-20T11:14:43;15.17;59.70
76785;SHT30;66893;44.316;0.092;2023-12-20T11:17:11;15.21;59.71
76785;SHT30;66893;44.316;0.092;2023-12-20T11:22:26;15.32;59.57
76785;SHT30;66893;44.316;0.092;2023-12-20T11:24:53;15.38;59.51
76785;SHT30;66893;44.316;0.092;2023-12-20T11:27:19;15.42;59.52
76785;SHT30;66893;44.316;0.092;2023-12-20T11:29:58;15.48;59.42
76785;SHT30;66893;44.316;0.092;2023-12-20T11:34:51;15.62;59.34
76785;SHT30;66893;44.316;0.092;2023-12-20T11:37:16;15.69;59.18
76785;SHT30;66893;44.316;0.092;2023-12-20T11:39:42;15.75;59.23
76785;SHT30;66893;44.316;0.092;2023-12-20T11:42:09;15.81;59.21
76785;SHT30;66893;44.316;0.092;2023-12-20T11:44:36;15.87;59.17
76785;SHT30;66893;44.316;0.092;2023-12-20T11:47:02;15.94;59.12
76785;SHT30;66893;44.316;0.092;2023-12-20T11:49:28;16.03;59.00
76785;SHT30;66893;44.316;0.092;2023-12-20T11:51:56;16.10;58.96
76785;SHT30;66893;44.316;0.092;2023-12-20T11:54:22;16.16;58.89
76785;SHT30;66893;44.316;0.092;2023-12-20T11:56:47;16.21;58.87
76785;SHT30;66893;44.316;0.092;2023-12-20T11:59:13;16.25;58.86
76785;SHT30;66893;44.316;0.092;2023-12-20T12:01:38;16.32;58.76
76785;SHT30;66893;44.316;0.092;2023-12-20T12:04:07;16.37;58.75
76785;SHT30;66893;44.316;0.092;2023-12-20T12:06:32;16.45;58.67
76785;SHT30;66893;44.316;0.092;2023-12-20T12:08:58;16.52;58.66
76785;SHT30;66893;44.316;0.092;2023-12-20T12:11:24;16.55;58.37
76785;SHT30;66893;44.316;0.092;2023-12-20T12:13:50;16.59;58.15
76785;SHT30;66893;44.316;0.092;2023-12-20T12:16:19;16.61;57.93
76785;SHT30;66893;44.316;0.092;2023-12-20T12:18:45;16.64;57.88
76785;SHT30;66893;44.316;0.092;2023-12-20T12:21:18;16.66;57.82
76785;SHT30;66893;44.316;0.092;2023-12-20T12:23:44;16.72;57.79
76785;SHT30;66893;44.316;0.092;2023-12-20T12:26:09;16.80;57.73
76785;SHT30;66893;44.316;0.092;2023-12-20T12:28:35;16.89;57.67
76785;SHT30;66893;44.316;0.092;2023-12-20T12:31:00;16.99;57.56
76785;SHT30;66893;44.316;0.092;2023-12-20T12:33:26;17.07;57.67
76785;SHT30;66893;44.316;0.092;2023-12-20T12:35:52;17.13;57.59
76785;SHT30;66893;44.316;0.092;2023-12-20T12:38:21;17.20;57.51
76785;SHT30;66893;44.316;0.092;2023-12-20T12:40:47;17.30;57.44
76785;SHT30;66893;44.316;0.092;2023-12-20T12:43:12;17.40;57.38
76785;SHT30;66893;44.316;0.092;2023-12-20T12:45:38;17.48;57.31
76785;SHT30;66893;44.316;0.092;2023-12-20T12:48:04;17.59;57.29
76785;SHT30;66893;44.316;0.092;2023-12-20T12:50:30;17.68;57.30
76785;SHT30;66893;44.316;0.092;2023-12-20T12:52:56;17.79;57.18
76785;SHT30;66893;44.316;0.092;2023-12-20T12:55:21;17.89;57.16
76785;SHT30;66893;44.316;0.092;2023-12-20T12:57:47;17.99;57.10
76785;SHT30;66893;44.316;0.092;2023-12-20T13:00:12;18.10;57.11
76785;SHT30;66893;44.316;0.092;2023-12-20T13:02:39;18.23;57.02
76785;SHT30;66893;44.316;0.092;2023-12-20T13:05:07;18.36;56.97
76785;SHT30;66893;44.316;0.092;2023-12-20T13:07:33;18.50;56.83
76785;SHT30;66893;44.316;0.092;2023-12-20T13:09:59;18.59;56.74
76785;SHT30;66893;44.316;0.092;2023-12-20T13:12:24;18.68;56.39
76785;SHT30;66893;44.316;0.092;2023-12-20T13:14:49;18.75;56.46
76785;SHT30;66893;44.316;0.092;2023-12-20T13:17:15;18.82;56.34
76785;SHT30;66893;44.316;0.092;2023-12-20T13:19:41;18.84;56.38
76785;SHT30;66893;44.316;0.092;2023-12-20T13:22:07;18.85;56.33
76785;SHT30;66893;44.316;0.092;2023-12-20T13:24:32;18.82;56.26
76785;SHT30;66893;44.316;0.092;2023-12-20T13:26:58;18.78;56.25
76785;SHT30;66893;44.316;0.092;2023-12-20T13:29:24;18.75;56.23
76785;SHT30;66893;44.316;0.092;2023-12-20T13:31:52;18.71;56.24
76785;SHT30;66893;44.316;0.092;2023-12-20T13:34:18;18.69;56.08
76785;SHT30;66893;44.316;0.092;2023-12-20T13:36:43;18.65;55.94
76785;SHT30;66893;44.316;0.092;2023-12-20T13:39:11;18.57;56.13
76785;SHT30;66893;44.316;0.092;2023-12-20T13:41:37;18.52;56.01
76785;SHT30;66893;44.316;0.092;2023-12-20T13:44:02;18.51;56.03
76785;SHT30;66893;44.316;0.092;2023-12-20T13:46:28;18.47;55.90
76785;SHT30;66893;44.316;0.092;2023-12-20T13:48:54;18.44;55.91
76785;SHT30;66893;44.316;0.092;2023-12-20T13:51:19;18.41;55.85
76785;SHT30;66893;44.316;0.092;2023-12-20T13:53:46;18.38;55.80
76785;SHT30;66893;44.316;0.092;2023-12-20T13:56:13;18.31;55.85
76785;SHT30;66893;44.316;0.092;2023-12-20T13:58:39;18.33;55.75
76785;SHT30;66893;44.316;0.092;2023-12-20T14:01:05;18.27;55.75
76785;SHT30;66893;44.316;0.092;2023-12-20T14:03:31;18.26;55.72
76785;SHT30;66893;44.316;0.092;2023-12-20T14:05:57;18.22;55.66
76785;SHT30;66893;44.316;0.092;2023-12-20T14:08:22;18.14;55.64
76785;SHT30;66893;44.316;0.092;2023-12-20T14:10:49;18.10;55.67
76785;SHT30;66893;44.316;0.092;2023-12-20T14:13:15;18.04;55.69
76785;SHT30;66893;44.316;0.092;2023-12-20T14:15:40;18.03;55.65
76785;SHT30;66893;44.316;0.092;2023-12-20T14:18:06;17.99;55.58
76785;SHT30;66893;44.316;0.092;2023-12-20T14:20:33;17.93;55.60
76785;SHT30;66893;44.316;0.092;2023-12-20T14:23:04;17.90;55.59
76785;SHT30;66893;44.316;0.092;2023-12-20T14:25:29;17.87;55.50
76785;SHT30;66893;44.316;0.092;2023-12-20T14:27:56;17.83;55.55
76785;SHT30;66893;44.316;0.092;2023-12-20T14:30:22;17.81;55.52
76785;SHT30;66893;44.316;0.092;2023-12-20T14:32:47;17.76;55.35
76785;SHT30;66893;44.316;0.092;2023-12-20T14:35:14;17.72;55.47
76785;SHT30;66893;44.316;0.092;2023-12-20T14:37:39;17.68;55.43
76785;SHT30;66893;44.316;0.092;2023-12-20T14:40:09;17.65;55.45
76785;SHT30;66893;44.316;0.092;2023-12-20T14:42:40;17.61;55.43
76785;SHT30;66893;44.316;0.092;2023-12-20T14:45:06;17.58;55.38
76785;SHT30;66893;44.316;0.092;2023-12-20T14:47:31;17.54;55.46
76785;SHT30;66893;44.316;0.092;2023-12-20T14:49:57;17.57;55.46
76785;SHT30;66893;44.316;0.092;2023-12-20T14:52:22;17.55;55.37
76785;SHT30;66893;44.316;0.092;2023-12-20T14:54:48;17.55;55.34
76785;SHT30;66893;44.316;0.092;2023-12-20T14:57:14;17.58;55.33
76785;SHT30;66893;44.316;0.092;2023-12-20T14:59:39;17.57;55.30
76785;SHT30;66893;44.316;0.092;2023-12-20T15:02:05;17.59;55.24
76785;SHT30;66893;44.316;0.092;2023-12-20T15:04:31;17.61;55.11
76785;SHT30;66893;44.316;0.092;2023-12-20T15:06:56;17.65;55.13
76785;SHT30;66893;44.316;0.092;2023-12-20T15:09:22;17.59;55.15
76785;SHT30;66893;44.316;0.092;2023-12-20T15:11:47;17.59;55.17
76785;SHT30;66893;44.316;0.092;2023-12-20T15:14:13;17.57;55.14
76785;SHT30;66893;44.316;0.092;2023-12-20T15:16:44;17.55;55.11
76785;SHT30;66893;44.316;0.092;2023-12-20T15:19:09;17.54;55.16
76785;SHT30;66893;44.316;0.092;2023-12-20T15:21:35;17.50;55.13
76785;SHT30;66893;44.316;0.092;2023-12-20T15:24:05;17.51;55.14
76785;SHT30;66893;44.316;0.092;2023-12-20T15:26:34;17.48;55.15
76785;SHT30;66893;44.316;0.092;2023-12-20T15:29:00;17.45;55.13
76785;SHT30;66893;44.316;0.092;2023-12-20T15:31:29;17.45;55.12